Terminal Aerodrome Forecast
Issued by NWS

Home | Current Version | Previous Version | Graphics & Text | Print | Product List | Glossary On
Versions: 1 2 3 4 5 6 7 8 9 10 11 12 13 14 15 16 17 18
000
FTUS42 KMHX 220500 RRA
TAFOAJ
TAF
KOAJ 220556Z 2206/2306 04008KT 5SM -RA BR SCT007 OVC015
      TEMPO 2207/2208 OVC007
     FM220800 02007KT 3SM -RA BR OVC007
     FM221900 35005KT 4SM -DZ BR OVC009
     FM230100 36003KT 1SM BR OVC004
      AMD LTD TO CLD VIS AND WIND=

USA.gov is the U.S. government's official web portal to all federal, state and local government web resources and services.